sensor_id;sensor_type;location;lat;lon;timestamp;pressure;altitude;pressure_sealevel;temperature;humidity
74678;BME280;67324;56.326;43.982;2023-06-26T10:07:46;100585.72;;;21.59;49.88
74678;BME280;67324;56.326;43.982;2023-06-26T10:10:14;100585.94;;;21.65;49.46
74678;BME280;67324;56.326;43.982;2023-06-26T10:12:41;100589.94;;;21.69;49.29
74678;BME280;67324;56.326;43.982;2023-06-26T10:15:08;100587.81;;;21.73;49.39
74678;BME280;67324;56.326;43.982;2023-06-26T10:17:38;100580.44;;;21.77;49.26
74678;BME280;67324;56.326;43.982;2023-06-26T10:20:07;100570.56;;;21.79;49.27
74678;BME280;67324;56.326;43.982;2023-06-26T10:22:45;100576.34;;;21.82;49.07
74678;BME280;67324;56.326;43.982;2023-06-26T10:25:16;100579.94;;;21.81;49.08
74678;BME280;67324;56.326;43.982;2023-06-26T10:27:50;100573.72;;;21.82;48.97
74678;BME280;67324;56.326;43.982;2023-06-26T10:30:21;100575.69;;;21.80;49.01
74678;BME280;67324;56.326;43.982;2023-06-26T10:32:48;100572.38;;;21.78;49.09
74678;BME280;67324;56.326;43.982;2023-06-26T10:35:14;100571.53;;;21.78;49.11
74678;BME280;67324;56.326;43.982;2023-06-26T10:37:45;100571.69;;;21.76;49.02
74678;BME280;67324;56.326;43.982;2023-06-26T10:40:13;100563.28;;;21.72;49.09
74678;BME280;67324;56.326;43.982;2023-06-26T10:42:40;100564.94;;;21.73;48.97
74678;BME280;67324;56.326;43.982;2023-06-26T10:45:11;100564.47;;;21.78;48.91
74678;BME280;67324;56.326;43.982;2023-06-26T10:47:40;100572.03;;;21.81;48.79
74678;BME280;67324;56.326;43.982;2023-06-26T10:50:29;100572.72;;;21.83;48.71
74678;BME280;67324;56.326;43.982;2023-06-26T10:53:24;100569.81;;;21.86;48.19
74678;BME280;67324;56.326;43.982;2023-06-26T10:56:00;100576.56;;;21.89;48.64
74678;BME280;67324;56.326;43.982;2023-06-26T10:58:29;100567.53;;;21.91;48.81
74678;BME280;67324;56.326;43.982;2023-06-26T11:01:20;100560.25;;;21.93;48.77
74678;BME280;67324;56.326;43.982;2023-06-26T11:03:59;100557.63;;;21.93;48.70
74678;BME280;67324;56.326;43.982;2023-06-26T11:06:28;100552.69;;;21.90;48.81
74678;BME280;67324;56.326;43.982;2023-06-26T11:12:09;100564.56;;;21.94;48.83
74678;BME280;67324;56.326;43.982;2023-06-26T11:14:54;100557.03;;;22.00;48.79
74678;BME280;67324;56.326;43.982;2023-06-26T11:17:20;100560.31;;;22.02;48.80
74678;BME280;67324;56.326;43.982;2023-06-26T11:19:47;100559.84;;;22.06;48.83
74678;BME280;67324;56.326;43.982;2023-06-26T11:22:14;100566.78;;;22.07;48.88
74678;BME280;67324;56.326;43.982;2023-06-26T11:24:41;100553.75;;;22.06;48.91
74678;BME280;67324;56.326;43.982;2023-06-26T11:27:08;100557.72;;;22.10;48.90
74678;BME280;67324;56.326;43.982;2023-06-26T11:29:33;100560.03;;;22.13;48.94
74678;BME280;67324;56.326;43.982;2023-06-26T11:32:00;100550.50;;;22.12;48.93
74678;BME280;67324;56.326;43.982;2023-06-26T11:34:29;100558.06;;;22.15;48.95
74678;BME280;67324;56.326;43.982;2023-06-26T11:36:56;100555.13;;;22.18;48.86
74678;BME280;67324;56.326;43.982;2023-06-26T11:39:22;100554.16;;;22.19;48.88
74678;BME280;67324;56.326;43.982;2023-06-26T11:41:48;100541.94;;;22.18;48.80
74678;BME280;67324;56.326;43.982;2023-06-26T11:44:14;100547.91;;;22.20;48.80
74678;BME280;67324;56.326;43.982;2023-06-26T11:46:45;100551.72;;;22.26;48.74
74678;BME280;67324;56.326;43.982;2023-06-26T11:49:11;100543.00;;;22.25;48.68
74678;BME280;67324;56.326;43.982;2023-06-26T11:51:37;100544.47;;;22.28;48.61
74678;BME280;67324;56.326;43.982;2023-06-26T11:54:03;100545.28;;;22.28;48.53
74678;BME280;67324;56.326;43.982;2023-06-26T11:56:30;100545.28;;;22.28;48.49
74678;BME280;67324;56.326;43.982;2023-06-26T11:59:07;100555.53;;;22.31;48.52
74678;BME280;67324;56.326;43.982;2023-06-26T12:01:39;100546.63;;;22.32;48.38
74678;BME280;67324;56.326;43.982;2023-06-26T12:04:24;100545.50;;;22.35;48.55
74678;BME280;67324;56.326;43.982;2023-06-26T12:06:52;100544.53;;;22.36;48.54
74678;BME280;67324;56.326;43.982;2023-06-26T12:09:23;100547.97;;;22.36;48.64
74678;BME280;67324;56.326;43.982;2023-06-26T12:11:52;100539.91;;;22.38;48.32
74678;BME280;67324;56.326;43.982;2023-06-26T12:14:20;100535.63;;;22.37;48.31
74678;BME280;67324;56.326;43.982;2023-06-26T12:16:48;100543.06;;;22.42;48.13
74678;BME280;67324;56.326;43.982;2023-06-26T12:19:14;100534.16;;;22.43;48.27
74678;BME280;67324;56.326;43.982;2023-06-26T12:24:10;100539.41;;;22.43;48.41
74678;BME280;67324;56.326;43.982;2023-06-26T12:26:38;100537.31;;;22.46;48.31
74678;BME280;67324;56.326;43.982;2023-06-26T12:29:09;100531.50;;;22.43;48.45
74678;BME280;67324;56.326;43.982;2023-06-26T12:31:43;100530.22;;;22.47;48.52
74678;BME280;67324;56.326;43.982;2023-06-26T12:34:14;100531.69;;;22.49;48.42
74678;BME280;67324;56.326;43.982;2023-06-26T12:36:47;100529.06;;;22.49;48.49
74678;BME280;67324;56.326;43.982;2023-06-26T12:39:18;100529.75;;;22.51;48.47
74678;BME280;67324;56.326;43.982;2023-06-26T12:44:27;100525.94;;;22.54;48.39
74678;BME280;67324;56.326;43.982;2023-06-26T12:47:14;100530.91;;;22.57;48.21
74678;BME280;67324;56.326;43.982;2023-06-26T12:50:05;100518.72;;;22.56;48.25
74678;BME280;67324;56.326;43.982;2023-06-26T12:52:31;100517.72;;;22.57;48.39
74678;BME280;67324;56.326;43.982;2023-06-26T12:54:57;100521.97;;;22.58;48.15
74678;BME280;67324;56.326;43.982;2023-06-26T12:57:23;100519.03;;;22.61;48.17
74678;BME280;67324;56.326;43.982;2023-06-26T12:59:49;100522.31;;;22.63;48.01
74678;BME280;67324;56.326;43.982;2023-06-26T13:02:15;100521.16;;;22.66;48.00
74678;BME280;67324;56.326;43.982;2023-06-26T13:04:42;100515.06;;;22.65;47.84
74678;BME280;67324;56.326;43.982;2023-06-26T13:07:11;100524.47;;;22.68;47.93
74678;BME280;67324;56.326;43.982;2023-06-26T13:09:37;100522.69;;;22.68;47.88
74678;BME280;67324;56.326;43.982;2023-06-26T13:12:05;100515.59;;;22.69;47.81
74678;BME280;67324;56.326;43.982;2023-06-26T13:14:31;100526.63;;;22.72;47.75
74678;BME280;67324;56.326;43.982;2023-06-26T13:16:59;100523.31;;;22.70;47.73
74678;BME280;67324;56.326;43.982;2023-06-26T13:19:26;100519.88;;;22.70;47.87
74678;BME280;67324;56.326;43.982;2023-06-26T13:21:52;100513.44;;;22.72;47.94
74678;BME280;67324;56.326;43.982;2023-06-26T13:24:18;100517.75;;;22.73;47.96
74678;BME280;67324;56.326;43.982;2023-06-26T13:26:43;100519.06;;;22.77;47.89
74678;BME280;67324;56.326;43.982;2023-06-26T13:29:09;100518.91;;;22.79;47.71
74678;BME280;67324;56.326;43.982;2023-06-26T13:31:35;100516.25;;;22.79;47.78
74678;BME280;67324;56.326;43.982;2023-06-26T13:34:02;100516.75;;;22.74;47.74
74678;BME280;67324;56.326;43.982;2023-06-26T13:36:29;100511.47;;;22.74;47.72
74678;BME280;67324;56.326;43.982;2023-06-26T13:38:55;100516.75;;;22.74;47.79
74678;BME280;67324;56.326;43.982;2023-06-26T13:41:24;100505.88;;;22.69;47.68
74678;BME280;67324;56.326;43.982;2023-06-26T13:43:51;100508.66;;;22.68;47.78
74678;BME280;67324;56.326;43.982;2023-06-26T13:46:17;100508.66;;;22.68;47.80
74678;BME280;67324;56.326;43.982;2023-06-26T13:48:46;100520.19;;;22.67;47.76
74678;BME280;67324;56.326;43.982;2023-06-26T13:51:12;100498.44;;;22.65;47.71
74678;BME280;67324;56.326;43.982;2023-06-26T13:53:39;100506.50;;;22.63;47.67
74678;BME280;67324;56.326;43.982;2023-06-26T13:56:04;100511.44;;;22.58;47.85
74678;BME280;67324;56.326;43.982;2023-06-26T13:58:30;100510.13;;;22.62;47.71
74678;BME280;67324;56.326;43.982;2023-06-26T14:00:58;100513.44;;;22.64;47.62
74678;BME280;67324;56.326;43.982;2023-06-26T14:03:25;100503.38;;;22.68;47.58
74678;BME280;67324;56.326;43.982;2023-06-26T14:05:51;100504.03;;;22.70;47.38
74678;BME280;67324;56.326;43.982;2023-06-26T14:08:17;100508.69;;;22.76;47.26
74678;BME280;67324;56.326;43.982;2023-06-26T14:10:43;100507.03;;;22.75;47.25
74678;BME280;67324;56.326;43.982;2023-06-26T14:13:09;100506.53;;;22.79;47.12
74678;BME280;67324;56.326;43.982;2023-06-26T14:15:37;100502.06;;;22.80;47.14
74678;BME280;67324;56.326;43.982;2023-06-26T14:18:05;100497.63;;;22.80;47.25
74678;BME280;67324;56.326;43.982;2023-06-26T14:20:31;100501.91;;;22.82;47.25
74678;BME280;67324;56.326;43.982;2023-06-26T14:22:58;100486.59;;;22.77;47.30
74678;BME280;67324;56.326;43.982;2023-06-26T14:25:24;100489.88;;;22.79;47.32
74678;BME280;67324;56.326;43.982;2023-06-26T14:27:50;100489.38;;;22.75;47.30
74678;BME280;67324;56.326;43.982;2023-06-26T14:30:15;100494.84;;;22.74;47.31
74678;BME280;67324;56.326;43.982;2023-06-26T14:32:41;100494.97;;;22.72;47.31
74678;BME280;67324;56.326;43.982;2023-06-26T14:35:07;100496.00;;;22.71;47.34
74678;BME280;67324;56.326;43.982;2023-06-26T14:37:35;100490.53;;;22.73;47.44
74678;BME280;67324;56.326;43.982;2023-06-26T14:40:01;100494.97;;;22.72;47.37
74678;BME280;67324;56.326;43.982;2023-06-26T14:42:29;100493.69;;;22.68;47.40
74678;BME280;67324;56.326;43.982;2023-06-26T14:44:55;100495.47;;;22.68;47.35
74678;BME280;67324;56.326;43.982;2023-06-26T14:47:20;100496.47;;;22.67;47.41
74678;BME280;67324;56.326;43.982;2023-06-26T14:49:46;100491.88;;;22.69;47.34
74678;BME280;67324;56.326;43.982;2023-06-26T14:52:12;100487.91;;;22.65;47.37
74678;BME280;67324;56.326;43.982;2023-06-26T14:54:38;100492.16;;;22.66;47.34
74678;BME280;67324;56.326;43.982;2023-06-26T14:57:06;100493.16;;;22.65;47.31
74678;BME280;67324;56.326;43.982;2023-06-26T14:59:32;100488.56;;;22.67;47.31
74678;BME280;67324;56.326;43.982;2023-06-26T15:01:57;100493.00;;;22.66;47.28
74678;BME280;67324;56.326;43.982;2023-06-26T15:04:23;100489.53;;;22.66;47.26
74678;BME280;67324;56.326;43.982;2023-06-26T15:06:49;100474.03;;;22.63;47.26
74678;BME280;67324;56.326;43.982;2023-06-26T15:09:15;100470.75;;;22.61;47.24
74678;BME280;67324;56.326;43.982;2023-06-26T15:11:41;100479.16;;;22.64;47.19
74678;BME280;67324;56.326;43.982;2023-06-26T15:14:06;100474.38;;;22.60;47.18
74678;BME280;67324;56.326;43.982;2023-06-26T15:16:32;100471.75;;;22.60;47.17
74678;BME280;67324;56.326;43.982;2023-06-26T15:18:58;100467.47;;;22.58;47.22
74678;BME280;67324;56.326;43.982;2023-06-26T15:21:24;100476.00;;;22.61;47.16
74678;BME280;67324;56.326;43.982;2023-06-26T15:23:50;100471.59;;;22.61;47.20
74678;BME280;67324;56.326;43.982;2023-06-26T15:26:16;100475.19;;;22.60;47.17
74678;BME280;67324;56.326;43.982;2023-06-26T15:28:42;100476.88;;;22.61;47.16
74678;BME280;67324;56.326;43.982;2023-06-26T15:31:08;100467.47;;;22.58;47.22
74678;BME280;67324;56.326;43.982;2023-06-26T15:33:33;100477.84;;;22.60;47.22
74678;BME280;67324;56.326;43.982;2023-06-26T15:36:00;100472.75;;;22.58;47.18
74678;BME280;67324;56.326;43.982;2023-06-26T15:38:29;100477.16;;;22.58;47.15
74678;BME280;67324;56.326;43.982;2023-06-26T15:40:54;100480.47;;;22.60;47.17
74678;BME280;67324;56.326;43.982;2023-06-26T15:43:20;100472.75;;;22.58;47.14
74678;BME280;67324;56.326;43.982;2023-06-26T15:45:46;100463.34;;;22.56;47.10
74678;BME280;67324;56.326;43.982;2023-06-26T15:48:12;100467.78;;;22.55;47.06
74678;BME280;67324;56.326;43.982;2023-06-26T15:50:37;100462.34;;;22.57;47.05
74678;BME280;67324;56.326;43.982;2023-06-26T15:53:04;100460.72;;;22.56;47.00
74678;BME280;67324;56.326;43.982;2023-06-26T15:55:30;100466.81;;;22.56;47.11
74678;BME280;67324;56.326;43.982;2023-06-26T15:57:56;100458.91;;;22.56;47.03
74678;BME280;67324;56.326;43.982;2023-06-26T16:00:22;100458.06;;;22.56;46.98
74678;BME280;67324;56.326;43.982;2023-06-26T16:02:48;100455.75;;;22.53;46.90
74678;BME280;67324;56.326;43.982;2023-06-26T16:05:14;100453.09;;;22.53;46.91
74678;BME280;67324;56.326;43.982;2023-06-26T16:07:40;100451.47;;;22.52;46.86
74678;BME280;67324;56.326;43.982;2023-06-26T16:10:25;100444.72;;;22.49;46.94
74678;BME280;67324;56.326;43.982;2023-06-26T16:12:52;100455.94;;;22.51;46.92
74678;BME280;67324;56.326;43.982;2023-06-26T16:15:18;100469.78;;;22.53;46.99
74678;BME280;67324;56.326;43.982;2023-06-26T16:17:43;100458.38;;;22.53;46.83
74678;BME280;67324;56.326;43.982;2023-06-26T16:20:10;100456.75;;;22.52;46.75
74678;BME280;67324;56.326;43.982;2023-06-26T16:22:36;100459.38;;;22.52;46.68
74678;BME280;67324;56.326;43.982;2023-06-26T16:25:01;100454.44;;;22.49;46.69
74678;BME280;67324;56.326;43.982;2023-06-26T16:27:28;100457.56;;;22.52;46.63
74678;BME280;67324;56.326;43.982;2023-06-26T16:29:54;100456.09;;;22.50;46.67
74678;BME280;67324;56.326;43.982;2023-06-26T16:32:20;100459.53;;;22.50;46.63
74678;BME280;67324;56.326;43.982;2023-06-26T16:34:46;100452.63;;;22.49;46.69
74678;BME280;67324;56.326;43.982;2023-06-26T16:37:11;100453.78;;;22.47;46.64
74678;BME280;67324;56.326;43.982;2023-06-26T16:39:37;100455.41;;;22.48;46.52
74678;BME280;67324;56.326;43.982;2023-06-26T16:42:04;100455.41;;;22.48;46.62
74678;BME280;67324;56.326;43.982;2023-06-26T16:44:30;100446.03;;;22.45;46.59
74678;BME280;67324;56.326;43.982;2023-06-26T16:46:57;100455.75;;;22.45;46.57
74678;BME280;67324;56.326;43.982;2023-06-26T16:49:24;100460.88;;;22.46;46.60
74678;BME280;67324;56.326;43.982;2023-06-26T16:51:50;100464.31;;;22.47;46.60
74678;BME280;67324;56.326;43.982;2023-06-26T16:54:18;100471.56;;;22.45;46.57
74678;BME280;67324;56.326;43.982;2023-06-26T16:56:44;100462.16;;;22.42;46.58
74678;BME280;67324;56.326;43.982;2023-06-26T16:59:10;100462.97;;;22.43;46.54
74678;BME280;67324;56.326;43.982;2023-06-26T17:01:36;100470.88;;;22.43;46.59
74678;BME280;67324;56.326;43.982;2023-06-26T17:04:01;100462.81;;;22.36;46.66
74678;BME280;67324;56.326;43.982;2023-06-26T17:06:27;100467.78;;;22.39;46.58
74678;BME280;67324;56.326;43.982;2023-06-26T17:08:53;100473.72;;;22.41;46.60
74678;BME280;67324;56.326;43.982;2023-06-26T17:11:19;100464.63;;;22.35;46.45
74678;BME280;67324;56.326;43.982;2023-06-26T17:13:44;100465.47;;;22.36;46.46
74678;BME280;67324;56.326;43.982;2023-06-26T17:16:11;100482.75;;;22.39;46.40
74678;BME280;67324;56.326;43.982;2023-06-26T17:18:37;100473.19;;;22.38;46.43
74678;BME280;67324;56.326;43.982;2023-06-26T17:21:03;100481.09;;;22.38;46.36
74678;BME280;67324;56.326;43.982;2023-06-26T17:23:28;100491.81;;;22.36;46.33
74678;BME280;67324;56.326;43.982;2023-06-26T17:25:54;100482.25;;;22.35;46.44
74678;BME280;67324;56.326;43.982;2023-06-26T17:28:23;100487.38;;;22.36;46.42
74678;BME280;67324;56.326;43.982;2023-06-26T17:30:48;100494.28;;;22.38;46.41
74678;BME280;67324;56.326;43.982;2023-06-26T17:33:14;100486.84;;;22.33;46.44
74678;BME280;67324;56.326;43.982;2023-06-26T17:35:40;100489.19;;;22.36;46.48
74678;BME280;67324;56.326;43.982;2023-06-26T17:38:06;100490.97;;;22.35;46.46
74678;BME280;67324;56.326;43.982;2023-06-26T17:40:33;100487.53;;;22.35;46.46
74678;BME280;67324;56.326;43.982;2023-06-26T17:42:59;100484.41;;;22.31;46.50
74678;BME280;67324;56.326;43.982;2023-06-26T17:45:24;100492.97;;;22.33;46.65
74678;BME280;67324;56.326;43.982;2023-06-26T17:47:53;100492.13;;;22.33;46.63
74678;BME280;67324;56.326;43.982;2023-06-26T17:50:18;100496.41;;;22.34;46.58
74678;BME280;67324;56.326;43.982;2023-06-26T17:52:44;100496.41;;;22.34;46.58
74678;BME280;67324;56.326;43.982;2023-06-26T17:55:10;100497.56;;;22.31;46.63
74678;BME280;67324;56.326;43.982;2023-06-26T17:57:36;100498.53;;;22.30;46.56
74678;BME280;67324;56.326;43.982;2023-06-26T18:00:06;100493.44;;;22.29;46.68
74678;BME280;67324;56.326;43.982;2023-06-26T18:02:50;100501.16;;;22.30;46.67
74678;BME280;67324;56.326;43.982;2023-06-26T18:05:16;100504.13;;;22.27;46.70
74678;BME280;67324;56.326;43.982;2023-06-26T18:07:42;100502.16;;;22.29;46.66
74678;BME280;67324;56.326;43.982;2023-06-26T18:10:09;100495.56;;;22.25;46.64
74678;BME280;67324;56.326;43.982;2023-06-26T18:12:35;100498.72;;;22.29;46.68
74678;BME280;67324;56.326;43.982;2023-06-26T18:15:01;100497.88;;;22.28;46.83
74678;BME280;67324;56.326;43.982;2023-06-26T18:17:29;100504.94;;;22.28;46.68
74678;BME280;67324;56.326;43.982;2023-06-26T18:19:55;100500.50;;;22.28;46.71
74678;BME280;67324;56.326;43.982;2023-06-26T18:22:21;100502.50;;;22.26;46.67
74678;BME280;67324;56.326;43.982;2023-06-26T18:24:47;100509.41;;;22.27;46.72
74678;BME280;67324;56.326;43.982;2023-06-26T18:27:13;100503.31;;;22.27;46.69
74678;BME280;67324;56.326;43.982;2023-06-26T18:29:39;100506.78;;;22.27;46.72
74678;BME280;67324;56.326;43.982;2023-06-26T18:32:05;100502.78;;;22.23;46.71
74678;BME280;67324;56.326;43.982;2023-06-26T18:34:31;100504.47;;;22.24;46.74
74678;BME280;67324;56.326;43.982;2023-06-26T18:36:57;100506.09;;;22.25;46.84
74678;BME280;67324;56.326;43.982;2023-06-26T18:39:24;100502.50;;;22.26;46.73
74678;BME280;67324;56.326;43.982;2023-06-26T18:41:50;100508.72;;;22.25;46.74
74678;BME280;67324;56.326;43.982;2023-06-26T18:44:16;100505.59;;;22.22;46.82
74678;BME280;67324;56.326;43.982;2023-06-26T18:46:42;100514.81;;;22.26;46.75
74678;BME280;67324;56.326;43.982;2023-06-26T18:49:08;100516.63;;;22.25;46.65
74678;BME280;67324;56.326;43.982;2023-06-26T18:51:34;100505.75;;;22.20;46.76
74678;BME280;67324;56.326;43.982;2023-06-26T18:54:01;100505.44;;;22.23;46.81
74678;BME280;67324;56.326;43.982;2023-06-26T18:56:28;100503.78;;;22.22;46.76
74678;BME280;67324;56.326;43.982;2023-06-26T18:58:54;100507.25;;;22.23;46.85
74678;BME280;67324;56.326;43.982;2023-06-26T19:01:20;100498.81;;;22.19;46.80
74678;BME280;67324;56.326;43.982;2023-06-26T19:03:46;100511.69;;;22.22;46.84
74678;BME280;67324;56.326;43.982;2023-06-26T19:06:12;100505.75;;;22.20;46.86
74678;BME280;67324;56.326;43.982;2023-06-26T19:08:38;100505.06;;;22.18;46.81
74678;BME280;67324;56.326;43.982;2023-06-26T19:11:06;100498.16;;;22.17;46.82
74678;BME280;67324;56.326;43.982;2023-06-26T19:13:31;100504.94;;;22.20;46.86
74678;BME280;67324;56.326;43.982;2023-06-26T19:15:57;100501.59;;;22.18;46.87
74678;BME280;67324;56.326;43.982;2023-06-26T19:18:23;100506.06;;;22.17;46.86
74678;BME280;67324;56.326;43.982;2023-06-26T19:20:48;100503.41;;;22.17;46.85
74678;BME280;67324;56.326;43.982;2023-06-26T19:23:14;100506.38;;;22.14;46.82
74678;BME280;67324;56.326;43.982;2023-06-26T19:25:40;100513.28;;;22.15;46.83
74678;BME280;67324;56.326;43.982;2023-06-26T19:28:06;100521.84;;;22.17;46.85
74678;BME280;67324;56.326;43.982;2023-06-26T19:30:32;100521.03;;;22.17;46.92
74678;BME280;67324;56.326;43.982;2023-06-26T19:32:58;100521.03;;;22.17;46.94
74678;BME280;67324;56.326;43.982;2023-06-26T19:35:24;100517.72;;;22.14;46.93
74678;BME280;67324;56.326;43.982;2023-06-26T19:37:50;100518.88;;;22.12;46.93
74678;BME280;67324;56.326;43.982;2023-06-26T19:40:16;100515.25;;;22.13;46.89
74678;BME280;67324;56.326;43.982;2023-06-26T19:42:41;100519.38;;;22.15;46.86
74678;BME280;67324;56.326;43.982;2023-06-26T19:45:07;100520.38;;;22.14;46.88
74678;BME280;67324;56.326;43.982;2023-06-26T19:47:33;100517.72;;;22.14;46.95
74678;BME280;67324;56.326;43.982;2023-06-26T19:50:01;100518.88;;;22.12;46.92
74678;BME280;67324;56.326;43.982;2023-06-26T19:52:27;100516.38;;;22.10;46.88
74678;BME280;67324;56.326;43.982;2023-06-26T19:54:52;100512.13;;;22.09;46.94
74678;BME280;67324;56.326;43.982;2023-06-26T19:57:37;100515.44;;;22.11;46.90
74678;BME280;67324;56.326;43.982;2023-06-26T20:00:03;100521.66;;;22.10;46.94
74678;BME280;67324;56.326;43.982;2023-06-26T20:02:36;100513.09;;;22.08;46.96
74678;BME280;67324;56.326;43.982;2023-06-26T20:05:02;100521.66;;;22.10;46.93
74678;BME280;67324;56.326;43.982;2023-06-26T20:07:29;100511.44;;;22.07;46.96
74678;BME280;67324;56.326;43.982;2023-06-26T20:09:55;100518.22;;;22.10;46.91
74678;BME280;67324;56.326;43.982;2023-06-26T20:12:39;100511.44;;;22.07;46.94
74678;BME280;67324;56.326;43.982;2023-06-26T20:15:23;100519.22;;;22.09;46.94
74678;BME280;67324;56.326;43.982;2023-06-26T20:17:49;100519.22;;;22.09;46.85
74678;BME280;67324;56.326;43.982;2023-06-26T20:20:15;100510.63;;;22.07;46.94
74678;BME280;67324;56.326;43.982;2023-06-26T20:22:41;100512.28;;;22.08;46.95
74678;BME280;67324;56.326;43.982;2023-06-26T20:25:07;100514.09;;;22.07;47.00
74678;BME280;67324;56.326;43.982;2023-06-26T20:27:34;100508.31;;;22.04;46.96
74678;BME280;67324;56.326;43.982;2023-06-26T20:29:59;100510.78;;;22.05;46.98
74678;BME280;67324;56.326;43.982;2023-06-26T20:32:29;100506.31;;;22.06;46.96
74678;BME280;67324;56.326;43.982;2023-06-26T20:34:54;100502.19;;;22.03;46.96
74678;BME280;67324;56.326;43.982;2023-06-26T20:37:20;100515.38;;;22.03;47.01
74678;BME280;67324;56.326;43.982;2023-06-26T20:39:46;100515.22;;;22.05;46.98
74678;BME280;67324;56.326;43.982;2023-06-26T20:42:13;100516.88;;;22.06;46.82
74678;BME280;67324;56.326;43.982;2023-06-26T20:44:57;100512.75;;;22.03;46.91
74678;BME280;67324;56.326;43.982;2023-06-26T20:47:24;100512.25;;;22.00;46.96
74678;BME280;67324;56.326;43.982;2023-06-26T20:49:59;100515.38;;;22.03;46.98
74678;BME280;67324;56.326;43.982;2023-06-26T20:52:26;100509.59;;;22.00;46.96
74678;BME280;67324;56.326;43.982;2023-06-26T20:54:54;100512.09;;;22.01;46.91
74678;BME280;67324;56.326;43.982;2023-06-26T20:57:20;100514.56;;;22.03;47.00
74678;BME280;67324;56.326;43.982;2023-06-26T20:59:46;100527.72;;;22.03;47.00
74678;BME280;67324;56.326;43.982;2023-06-26T21:02:12;100512.25;;;22.00;46.95
74678;BME280;67324;56.326;43.982;2023-06-26T21:04:38;100519.16;;;22.01;47.01
74678;BME280;67324;56.326;43.982;2023-06-26T21:07:05;100514.06;;;21.99;47.01
74678;BME280;67324;56.326;43.982;2023-06-26T21:09:31;100521.78;;;22.01;47.01
74678;BME280;67324;56.326;43.982;2023-06-26T21:11:58;100509.94;;;21.97;47.04
74678;BME280;67324;56.326;43.982;2023-06-26T21:14:24;100515.19;;;21.97;47.07
74678;BME280;67324;56.326;43.982;2023-06-26T21:16:49;100509.94;;;21.97;47.13
74678;BME280;67324;56.326;43.982;2023-06-26T21:19:16;100508.28;;;21.96;47.09
74678;BME280;67324;56.326;43.982;2023-06-26T21:21:41;100509.41;;;21.93;47.06
74678;BME280;67324;56.326;43.982;2023-06-26T21:24:07;100504.81;;;21.95;47.06
74678;BME280;67324;56.326;43.982;2023-06-26T21:26:53;100503.19;;;21.94;47.07
74678;BME280;67324;56.326;43.982;2023-06-26T21:29:19;100512.56;;;21.97;47.11
74678;BME280;67324;56.326;43.982;2023-06-26T21:31:44;100504.81;;;21.95;47.03
74678;BME280;67324;56.326;43.982;2023-06-26T21:34:10;100506.63;;;21.94;47.10
74678;BME280;67324;56.326;43.982;2023-06-26T21:36:36;100503.81;;;21.96;47.12
74678;BME280;67324;56.326;43.982;2023-06-26T21:39:02;100499.53;;;21.95;47.14
74678;BME280;67324;56.326;43.982;2023-06-26T21:41:29;100506.63;;;21.94;47.14
74678;BME280;67324;56.326;43.982;2023-06-26T21:43:54;100498.88;;;21.93;47.17
74678;BME280;67324;56.326;43.982;2023-06-26T21:46:20;100497.72;;;21.96;47.15
74678;BME280;67324;56.326;43.982;2023-06-26T21:48:46;100495.56;;;21.91;47.13
74678;BME280;67324;56.326;43.982;2023-06-26T21:51:12;100492.28;;;21.89;47.21
74678;BME280;67324;56.326;43.982;2023-06-26T21:53:37;100491.28;;;21.90;47.18
74678;BME280;67324;56.326;43.982;2023-06-26T21:56:03;100491.97;;;21.92;47.09
74678;BME280;67324;56.326;43.982;2023-06-26T21:58:29;100496.41;;;21.91;47.08
74678;BME280;67324;56.326;43.982;2023-06-26T22:00:55;100489.47;;;21.90;47.19
74678;BME280;67324;56.326;43.982;2023-06-26T22:03:20;100485.22;;;21.89;47.13
74678;BME280;67324;56.326;43.982;2023-06-26T22:05:46;100491.44;;;21.88;47.14
74678;BME280;67324;56.326;43.982;2023-06-26T22:08:12;100486.19;;;21.88;47.14
74678;BME280;67324;56.326;43.982;2023-06-26T22:10:38;100483.41;;;21.90;47.14
74678;BME280;67324;56.326;43.982;2023-06-26T22:13:04;100475.00;;;21.86;47.25
74678;BME280;67324;56.326;43.982;2023-06-26T22:15:30;100479.28;;;21.87;47.24
74678;BME280;67324;56.326;43.982;2023-06-26T22:17:56;100482.56;;;21.89;47.21
74678;BME280;67324;56.326;43.982;2023-06-26T22:20:26;100477.63;;;21.86;47.13
74678;BME280;67324;56.326;43.982;2023-06-26T22:22:53;100484.53;;;21.87;47.20
74678;BME280;67324;56.326;43.982;2023-06-26T22:25:18;100486.34;;;21.87;47.28
74678;BME280;67324;56.326;43.982;2023-06-26T22:27:46;100487.16;;;21.87;47.20
74678;BME280;67324;56.326;43.982;2023-06-26T22:30:13;100488.31;;;21.85;47.30
74678;BME280;67324;56.326;43.982;2023-06-26T22:32:40;100486.50;;;21.85;47.11
74678;BME280;67324;56.326;43.982;2023-06-26T22:35:06;100489.13;;;21.85;47.15
74678;BME280;67324;56.326;43.982;2023-06-26T22:37:32;100485.69;;;21.85;47.25
74678;BME280;67324;56.326;43.982;2023-06-26T22:39:58;100486.81;;;21.82;47.19
74678;BME280;67324;56.326;43.982;2023-06-26T22:42:24;100492.75;;;21.84;47.23
74678;BME280;67324;56.326;43.982;2023-06-26T22:44:50;100485.16;;;21.81;47.23
74678;BME280;67324;56.326;43.982;2023-06-26T22:47:15;100490.28;;;21.83;47.25
74678;BME280;67324;56.326;43.982;2023-06-26T22:49:41;100491.09;;;21.83;47.24
74678;BME280;67324;56.326;43.982;2023-06-26T22:52:07;100492.91;;;21.83;47.18
74678;BME280;67324;56.326;43.982;2023-06-26T22:54:33;100486.28;;;21.79;47.26
74678;BME280;67324;56.326;43.982;2023-06-26T22:56:59;100498.19;;;21.83;47.28